createdAt,value
2022-09-22T00:04:10.629Z,10.80
2022-09-22T00:07:25.096Z,12.30
2022-09-22T00:10:26.897Z,9.02
2022-09-22T00:13:28.687Z,8.50
2022-09-22T00:16:37.177Z,10.93
2022-09-22T00:19:39.025Z,9.57
2022-09-22T00:22:41.298Z,8.88
2022-09-22T00:25:43.222Z,14.88
2022-09-22T00:28:57.573Z,10.38
2022-09-22T00:32:03.570Z,8.20
2022-09-22T00:35:08.439Z,8.38
2022-09-22T00:38:16.302Z,8.10
2022-09-22T00:41:30.746Z,11.18
2022-09-22T00:44:34.528Z,9.73
2022-09-22T00:47:45.949Z,10.05
2022-09-22T00:50:50.322Z,8.05
2022-09-22T00:53:54.560Z,9.00
2022-09-22T00:57:23.375Z,8.20
2022-09-22T01:00:25.113Z,8.95
2022-09-22T01:03:30.129Z,8.52
2022-09-22T01:06:32.517Z,8.27
2022-09-22T01:09:34.605Z,7.63
2022-09-22T01:12:39.523Z,8.98
2022-09-22T01:15:57.267Z,8.98
2022-09-22T01:19:05.011Z,9.02
2022-09-22T01:22:40.916Z,11.30
2022-09-22T01:25:58.466Z,10.23
2022-09-22T01:29:36.907Z,8.27
2022-09-22T01:33:16.352Z,8.68
2022-09-22T01:36:56.444Z,10.88
2022-09-22T01:40:27.801Z,9.45
2022-09-22T01:43:41.382Z,7.82
2022-09-22T01:47:01.510Z,9.15
2022-09-22T01:50:26.346Z,8.80
2022-09-22T01:53:33.896Z,7.82
2022-09-22T01:56:37.463Z,8.13
2022-09-22T01:59:43.162Z,11.18
2022-09-22T02:02:58.157Z,10.70
2022-09-22T02:06:08.030Z,8.98
2022-09-22T02:09:12.404Z,8.85
2022-09-22T02:12:19.763Z,10.20
2022-09-22T02:15:41.337Z,12.10
2022-09-22T02:18:48.548Z,10.45
2022-09-22T02:21:53.660Z,15.05
2022-09-22T02:24:55.394Z,11.13
2022-09-22T02:27:58.264Z,11.77
2022-09-22T02:31:19.593Z,12.55
2022-09-22T02:34:22.815Z,9.38
2022-09-22T02:38:06.874Z,12.38
2022-09-22T02:41:15.124Z,13.10
2022-09-22T02:44:25.419Z,8.80
2022-09-22T02:47:37.140Z,11.73
2022-09-22T02:50:39.063Z,15.82
2022-09-22T02:53:41.012Z,10.35
2022-09-22T02:56:43.456Z,10.55
2022-09-22T02:59:51.402Z,9.15
2022-09-22T03:02:53.353Z,10.57
2022-09-22T03:05:55.039Z,11.68
2022-09-22T03:08:57.111Z,14.27
2022-09-22T03:11:58.989Z,9.02
2022-09-22T03:15:00.697Z,8.40
2022-09-22T03:18:09.810Z,15.70
2022-09-22T03:21:53.596Z,10.80
2022-09-22T03:24:55.491Z,9.32
2022-09-22T03:27:57.151Z,10.38
2022-09-22T03:30:59.114Z,8.35
2022-09-22T03:34:00.897Z,9.82
2022-09-22T03:37:02.998Z,10.80
2022-09-22T03:40:05.845Z,11.52
2022-09-22T03:43:07.886Z,11.02
2022-09-22T03:46:22.243Z,7.85
2022-09-22T03:49:24.978Z,9.38
2022-09-22T03:52:27.409Z,10.65
2022-09-22T03:55:29.957Z,10.40
2022-09-22T03:58:31.630Z,7.77
2022-09-22T04:01:39.308Z,9.48
2022-09-22T04:04:41.105Z,9.23
2022-09-22T04:07:42.853Z,11.38
2022-09-22T04:10:45.970Z,10.02
2022-09-22T04:13:47.788Z,7.72
2022-09-22T04:16:49.483Z,11.80
2022-09-22T04:19:51.871Z,7.43
2022-09-22T04:22:53.893Z,9.30
2022-09-22T04:25:55.875Z,9.90
2022-09-22T04:28:57.602Z,12.70
2022-09-22T04:32:02.768Z,9.68
2022-09-22T04:35:04.834Z,7.65
2022-09-22T04:38:06.516Z,9.88
2022-09-22T04:41:08.204Z,13.10
2022-09-22T04:44:20.941Z,11.43
2022-09-22T04:47:22.689Z,6.90
2022-09-22T04:50:24.675Z,7.50
2022-09-22T04:56:32.381Z,7.03
2022-09-22T04:59:35.408Z,8.05
2022-09-22T05:02:37.132Z,8.38
2022-09-22T05:05:39.595Z,10.02
2022-09-22T05:08:41.361Z,10.52
2022-09-22T05:11:44.139Z,8.10
2022-09-22T05:14:46.233Z,8.77
2022-09-22T05:17:52.548Z,7.78
2022-09-22T05:20:54.238Z,8.05
2022-09-22T05:23:55.962Z,11.80
2022-09-22T05:26:58.155Z,9.90
2022-09-22T05:30:00.365Z,12.23
2022-09-22T05:33:11.475Z,8.38
2022-09-22T05:36:13.234Z,8.20
2022-09-22T05:39:14.919Z,11.90
2022-09-22T05:42:16.588Z,8.82
2022-09-22T05:45:19.983Z,13.07
2022-09-22T05:51:23.441Z,7.45
2022-09-22T05:54:31.190Z,11.85
2022-09-22T05:57:33.026Z,11.30
2022-09-22T06:00:34.965Z,10.40
2022-09-22T06:03:36.872Z,10.63
2022-09-22T06:06:38.682Z,10.95
2022-09-22T06:09:40.441Z,12.40
2022-09-22T06:12:42.166Z,8.73
2022-09-22T06:15:48.236Z,12.18
2022-09-22T06:18:50.389Z,9.93
2022-09-22T06:21:54.623Z,10.00
2022-09-22T06:24:56.432Z,11.60
2022-09-22T06:28:04.910Z,12.57
2022-09-22T06:31:07.119Z,19.85
2022-09-22T06:34:08.862Z,14.60
2022-09-22T06:37:11.052Z,16.92
2022-09-22T06:40:17.382Z,10.93
2022-09-22T06:43:28.622Z,11.23
2022-09-22T06:46:42.645Z,11.85
2022-09-22T06:49:44.300Z,13.38
2022-09-22T06:53:19.482Z,8.77
2022-09-22T06:56:55.624Z,13.35
2022-09-22T06:59:57.388Z,10.18
2022-09-22T07:03:15.917Z,8.55
2022-09-22T07:06:20.458Z,15.35
2022-09-22T07:09:31.787Z,15.10
2022-09-22T07:12:34.091Z,21.00
2022-09-22T07:15:37.360Z,63.90
2022-09-22T07:18:40.784Z,58.10
2022-09-22T07:24:45.796Z,18.48
2022-09-22T07:27:48.654Z,16.03
2022-09-22T07:30:59.959Z,11.10
2022-09-22T07:34:02.094Z,9.65
2022-09-22T07:37:03.783Z,6.15
2022-09-22T07:40:06.086Z,6.63
2022-09-22T07:43:07.833Z,6.35
2022-09-22T07:46:09.617Z,5.95
2022-09-22T07:49:11.772Z,7.78
2022-09-22T07:52:24.887Z,4.22
2022-09-22T07:55:26.602Z,14.63
2022-09-22T07:58:31.367Z,18.63
2022-09-22T08:01:34.630Z,15.82
2022-09-22T08:04:36.473Z,17.65
2022-09-22T08:07:38.343Z,11.95
2022-09-22T08:10:40.008Z,11.77
2022-09-22T08:13:55.217Z,11.70
2022-09-22T08:16:57.682Z,7.60
2022-09-22T08:20:02.605Z,4.03
2022-09-22T08:23:05.525Z,6.32
2022-09-22T08:26:08.554Z,8.98
2022-09-22T08:29:11.279Z,6.32
2022-09-22T08:32:18.130Z,5.07
2022-09-22T08:35:20.509Z,5.40
2022-09-22T08:38:23.359Z,4.80
2022-09-22T08:41:28.619Z,6.28
2022-09-22T08:44:39.729Z,7.50
2022-09-22T08:48:06.800Z,3.78
2022-09-22T08:51:49.700Z,5.18
2022-09-22T08:54:51.625Z,3.75
2022-09-22T08:58:12.292Z,8.95
2022-09-22T09:01:20.779Z,6.28
2022-09-22T09:05:04.059Z,4.50
2022-09-22T09:08:21.684Z,3.53
2022-09-22T09:11:44.914Z,2.40
2022-09-22T09:14:50.170Z,7.20
2022-09-22T09:17:56.634Z,4.97
2022-09-22T09:21:02.757Z,10.30
2022-09-22T09:27:38.518Z,4.00
2022-09-22T09:30:45.579Z,2.53
2022-09-22T09:34:00.559Z,2.75
2022-09-22T09:37:14.757Z,7.38
2022-09-22T09:40:19.878Z,3.08
2022-09-22T09:43:27.711Z,6.43
2022-09-22T09:46:29.511Z,5.38
2022-09-22T09:49:31.848Z,2.85
2022-09-22T09:52:37.434Z,2.40
2022-09-22T09:55:39.641Z,3.15
2022-09-22T09:59:14.912Z,2.40
2022-09-22T10:02:28.534Z,2.42
2022-09-22T10:08:35.136Z,2.95
2022-09-22T10:11:37.030Z,3.05
2022-09-22T10:14:39.072Z,2.55
2022-09-22T10:17:43.093Z,3.65
2022-09-22T10:20:44.862Z,1.88
2022-09-22T10:23:54.843Z,2.50
2022-09-22T10:26:57.389Z,2.17
2022-09-22T10:30:21.340Z,1.67
2022-09-22T10:36:27.766Z,2.53
2022-09-22T10:39:49.483Z,2.08
2022-09-22T10:42:54.409Z,2.45
2022-09-22T10:46:12.893Z,1.90
2022-09-22T10:49:34.719Z,3.53
2022-09-22T10:52:42.285Z,2.13
2022-09-22T10:55:52.922Z,2.17
2022-09-22T10:59:25.732Z,4.35
2022-09-22T11:02:46.035Z,1.45
2022-09-22T11:06:25.931Z,2.05
2022-09-22T11:10:00.730Z,2.78
2022-09-22T11:13:22.752Z,4.38
2022-09-22T11:17:16.044Z,10.65
2022-09-22T11:20:37.000Z,10.25
2022-09-22T11:23:54.123Z,4.63
2022-09-22T11:26:58.984Z,2.80
2022-09-22T11:30:24.083Z,3.55
2022-09-22T11:34:19.846Z,4.22
2022-09-22T11:38:18.420Z,4.75
2022-09-22T11:41:35.301Z,2.17
2022-09-22T11:44:53.948Z,3.17
2022-09-22T11:48:27.015Z,7.35
2022-09-22T11:51:56.475Z,5.40
2022-09-22T11:55:19.575Z,3.45
2022-09-22T11:58:26.066Z,3.63
2022-09-22T12:01:32.406Z,3.75
2022-09-22T12:05:11.699Z,4.78
2022-09-22T12:08:22.661Z,3.50
2022-09-22T12:11:28.251Z,2.75
2022-09-22T12:14:30.400Z,5.80
2022-09-22T12:17:45.195Z,3.78
2022-09-22T12:20:47.085Z,4.50
2022-09-22T12:23:51.410Z,2.42
2022-09-22T12:27:10.873Z,1.98
2022-09-22T12:30:23.521Z,2.42
2022-09-22T12:33:29.591Z,10.60
2022-09-22T12:36:40.053Z,7.43
2022-09-22T12:39:44.732Z,6.05
2022-09-22T12:42:51.217Z,6.25
2022-09-22T12:45:54.833Z,3.85
2022-09-22T12:48:56.923Z,2.58
2022-09-22T12:51:59.309Z,2.05
2022-09-22T12:55:40.767Z,3.72
2022-09-22T12:58:43.192Z,3.25
2022-09-22T13:01:44.930Z,2.83
2022-09-22T13:04:49.459Z,4.80
2022-09-22T13:07:58.403Z,2.17
2022-09-22T13:11:05.777Z,2.00
2022-09-22T13:14:46.964Z,5.60
2022-09-22T13:17:51.072Z,2.90
2022-09-22T13:20:52.729Z,5.88
2022-09-22T13:23:54.448Z,7.95
2022-09-22T13:27:04.752Z,4.47
2022-09-22T13:30:15.828Z,2.95
2022-09-22T13:33:28.894Z,3.65
2022-09-22T13:36:30.582Z,2.78
2022-09-22T13:39:35.372Z,4.05
2022-09-22T13:42:38.064Z,1.63
2022-09-22T13:45:40.393Z,6.82
2022-09-22T13:48:42.149Z,5.13
2022-09-22T13:51:53.806Z,2.28
2022-09-22T13:54:59.848Z,4.47
2022-09-22T13:58:03.257Z,4.38
2022-09-22T14:04:24.883Z,4.97
2022-09-22T14:07:30.212Z,1.60
2022-09-22T14:10:32.704Z,3.88
2022-09-22T14:13:56.998Z,1.87
2022-09-22T14:17:13.875Z,4.55
2022-09-22T14:20:16.037Z,2.92
2022-09-22T14:23:42.071Z,3.45
2022-09-22T14:26:53.262Z,2.95
2022-09-22T14:29:55.948Z,3.97
2022-09-22T14:33:04.066Z,2.10
2022-09-22T14:36:07.887Z,2.80
2022-09-22T14:39:31.232Z,1.65
2022-09-22T14:42:34.314Z,1.52
2022-09-22T14:45:37.370Z,3.67
2022-09-22T14:48:39.165Z,3.05
2022-09-22T14:51:45.928Z,2.95
2022-09-22T14:54:47.722Z,1.50
2022-09-22T14:57:50.457Z,3.35
2022-09-22T15:01:14.155Z,1.98
2022-09-22T15:04:22.922Z,2.92
2022-09-22T15:07:37.220Z,2.80
2022-09-22T15:10:40.845Z,3.03
2022-09-22T15:13:47.002Z,2.20
2022-09-22T15:16:49.965Z,2.45
2022-09-22T15:19:57.177Z,1.35
2022-09-22T15:22:59.042Z,2.90
2022-09-22T15:26:03.710Z,1.95
2022-09-22T15:29:05.486Z,2.25
2022-09-22T15:32:07.672Z,3.08
2022-09-22T15:35:10.087Z,3.50
2022-09-22T15:38:27.596Z,4.18
2022-09-22T15:41:29.431Z,2.17
2022-09-22T15:44:32.642Z,1.67
2022-09-22T15:47:34.448Z,1.95
2022-09-22T15:50:36.648Z,2.15
2022-09-22T15:53:39.048Z,2.25
2022-09-22T15:56:42.713Z,2.90
2022-09-22T15:59:44.488Z,4.88
2022-09-22T16:02:47.745Z,4.50
2022-09-22T16:05:54.001Z,5.55
2022-09-22T16:08:56.442Z,2.80
2022-09-22T16:11:58.163Z,2.35
2022-09-22T16:15:02.750Z,12.80
2022-09-22T16:18:08.591Z,2.97
2022-09-22T16:21:23.029Z,2.72
2022-09-22T16:24:27.987Z,2.40
2022-09-22T16:27:29.987Z,2.15
2022-09-22T16:30:31.796Z,1.75
2022-09-22T16:33:34.070Z,1.50
2022-09-22T16:36:37.110Z,2.38
2022-09-22T16:39:39.143Z,2.60
2022-09-22T16:42:41.067Z,3.20
2022-09-22T16:46:01.352Z,2.20
2022-09-22T16:49:12.752Z,4.57
2022-09-22T16:52:15.173Z,3.13
2022-09-22T16:55:17.177Z,4.35
2022-09-22T16:58:18.895Z,4.13
2022-09-22T17:01:20.682Z,2.90
2022-09-22T17:04:22.508Z,6.20
2022-09-22T17:07:24.374Z,3.95
2022-09-22T17:10:26.215Z,8.57
2022-09-22T17:13:28.188Z,4.15
2022-09-22T17:16:36.180Z,4.72
2022-09-22T17:19:38.113Z,7.40
2022-09-22T17:22:40.228Z,9.32
2022-09-22T17:25:41.901Z,12.45
2022-09-22T17:28:43.945Z,6.65
2022-09-22T17:31:49.457Z,8.95
2022-09-22T17:35:06.566Z,7.97
2022-09-22T17:38:08.965Z,7.13
2022-09-22T17:41:10.950Z,5.20
2022-09-22T17:44:17.052Z,5.13
2022-09-22T17:47:37.226Z,8.00
2022-09-22T17:50:57.740Z,10.20
2022-09-22T17:54:18.016Z,10.52
2022-09-22T17:57:25.644Z,12.05
2022-09-22T18:00:27.432Z,11.88
2022-09-22T18:03:29.181Z,12.20
2022-09-22T18:06:31.092Z,12.43
2022-09-22T18:09:37.497Z,7.82
2022-09-22T18:12:39.417Z,8.27
2022-09-22T18:15:41.958Z,7.05
2022-09-22T18:18:43.983Z,5.53
2022-09-22T18:21:45.639Z,7.80
2022-09-22T18:24:50.851Z,9.52
2022-09-22T18:27:53.764Z,8.02
2022-09-22T18:30:55.480Z,7.80
2022-09-22T18:33:58.180Z,4.32
2022-09-22T18:37:04.462Z,8.30
2022-09-22T18:40:17.496Z,9.25
2022-09-22T18:43:19.261Z,10.05
2022-09-22T18:46:21.516Z,7.05
2022-09-22T18:49:23.756Z,6.57
2022-09-22T18:52:25.738Z,5.50
2022-09-22T18:55:27.726Z,5.22
2022-09-22T18:58:29.857Z,8.32
2022-09-22T19:01:34.596Z,9.63
2022-09-22T19:04:36.401Z,7.13
2022-09-22T19:07:41.956Z,5.85
2022-09-22T19:10:44.970Z,8.23
2022-09-22T19:13:47.964Z,6.68
2022-09-22T19:16:50.215Z,6.53
2022-09-22T19:19:52.032Z,8.23
2022-09-22T19:22:58.229Z,5.05
2022-09-22T19:26:00.095Z,6.90
2022-09-22T19:29:02.992Z,5.80
2022-09-22T19:32:07.604Z,7.82
2022-09-22T19:35:10.138Z,9.32
2022-09-22T19:38:12.465Z,6.70
2022-09-22T19:41:17.181Z,10.32
2022-09-22T19:44:20.810Z,7.80
2022-09-22T19:47:23.157Z,10.93
2022-09-22T19:50:31.164Z,7.47
2022-09-22T19:53:33.342Z,12.73
2022-09-22T19:56:35.578Z,11.38
2022-09-22T19:59:37.296Z,14.38
2022-09-22T20:02:39.056Z,10.85
2022-09-22T20:05:41.902Z,16.23
2022-09-22T20:08:43.605Z,14.63
2022-09-22T20:11:49.966Z,9.75
2022-09-22T20:14:51.602Z,9.25
2022-09-22T20:17:54.144Z,12.70
2022-09-22T20:20:57.082Z,13.33
2022-09-22T20:23:58.860Z,9.52
2022-09-22T20:27:00.530Z,38.78
2022-09-22T20:30:03.291Z,14.52
2022-09-22T20:33:19.226Z,11.00
2022-09-22T20:36:20.980Z,10.40
2022-09-22T20:39:23.224Z,13.73
2022-09-22T20:42:25.040Z,14.68
2022-09-22T20:45:27.313Z,54.92
2022-09-22T20:48:30.243Z,38.28
2022-09-22T20:51:33.592Z,24.35
2022-09-22T20:54:36.237Z,18.38
2022-09-22T20:57:38.989Z,12.87
2022-09-22T21:00:40.752Z,10.60
2022-09-22T21:03:43.622Z,11.23
2022-09-22T21:06:45.545Z,9.90
2022-09-22T21:10:05.783Z,9.52
2022-09-22T21:13:07.689Z,12.90
2022-09-22T21:16:10.195Z,10.95
2022-09-22T21:19:12.664Z,11.87
2022-09-22T21:22:15.189Z,11.02
2022-09-22T21:25:25.363Z,12.90
2022-09-22T21:28:28.489Z,9.05
2022-09-22T21:31:41.058Z,10.35
2022-09-22T21:34:43.025Z,10.30
2022-09-22T21:37:44.807Z,9.50
2022-09-22T21:40:47.009Z,9.50
2022-09-22T21:43:50.124Z,12.35
2022-09-22T21:46:52.276Z,6.15
2022-09-22T21:49:53.948Z,11.32
2022-09-22T21:53:04.884Z,8.88
2022-09-22T21:56:12.106Z,6.78
2022-09-22T21:59:14.265Z,9.70
2022-09-22T22:02:15.957Z,9.18
2022-09-22T22:05:17.611Z,8.02
2022-09-22T22:18:36.069Z,8.52
2022-09-22T22:21:43.351Z,9.48
2022-09-22T22:24:45.292Z,10.60
2022-09-22T22:27:47.058Z,10.30
2022-09-22T22:30:48.848Z,9.93
2022-09-22T22:33:50.537Z,8.80
2022-09-22T22:36:53.208Z,10.10
2022-09-22T22:39:55.109Z,9.30
2022-09-22T22:42:59.486Z,13.75
2022-09-22T22:46:01.230Z,11.63
2022-09-22T22:49:03.184Z,11.27
2022-09-22T22:52:04.993Z,11.10
2022-09-22T22:55:09.381Z,11.27
2022-09-22T22:58:18.312Z,10.25
2022-09-22T23:01:30.051Z,13.20
2022-09-22T23:04:34.033Z,12.02
2022-09-22T23:07:38.346Z,7.72
2022-09-22T23:10:39.996Z,8.82
2022-09-22T23:14:07.699Z,6.07
2022-09-22T23:17:09.363Z,5.20
2022-09-22T23:20:12.756Z,5.13
2022-09-22T23:26:17.660Z,5.90
2022-09-22T23:29:19.661Z,3.95
2022-09-22T23:32:21.773Z,8.10
2022-09-22T23:35:23.522Z,2.75
2022-09-22T23:38:27.285Z,4.63
2022-09-22T23:41:33.107Z,4.28
2022-09-22T23:44:34.853Z,5.00
2022-09-22T23:47:36.806Z,6.38
2022-09-22T23:50:38.508Z,5.28
2022-09-22T23:53:40.387Z,3.55
2022-09-22T23:56:55.927Z,7.53
2022-09-22T23:59:57.700Z,4.85
